createdAt,value
2019-02-18T00:02:00.943Z,62.20
2019-02-18T00:07:03.385Z,61.83
2019-02-18T00:12:05.840Z,61.83
2019-02-18T00:17:08.277Z,61.95
2019-02-18T00:22:10.716Z,62.05
2019-02-18T00:27:13.149Z,62.35
2019-02-18T00:32:15.589Z,62.30
2019-02-18T00:37:24.503Z,62.27
2019-02-18T00:42:20.477Z,62.39
2019-02-18T00:47:22.912Z,62.39
2019-02-18T00:52:25.348Z,62.59
2019-02-18T00:57:27.791Z,62.69
2019-02-18T01:02:30.240Z,62.67
2019-02-18T01:07:35.124Z,62.79
2019-02-18T01:12:35.112Z,62.60
2019-02-18T01:17:37.559Z,63.55
2019-02-18T01:22:39.993Z,63.91
2019-02-18T01:27:42.430Z,63.66
2019-02-18T01:32:44.877Z,63.26
2019-02-18T01:37:47.333Z,63.34
2019-02-18T01:42:49.781Z,63.05
2019-02-18T01:47:52.247Z,63.25
2019-02-18T01:52:54.704Z,63.32
2019-02-18T01:57:57.139Z,63.49
2019-02-18T02:02:59.594Z,63.75
2019-02-18T02:08:02.031Z,63.90
2019-02-18T02:13:32.256Z,64.30
2019-02-18T02:18:34.710Z,64.49
2019-02-18T02:23:37.155Z,64.84
2019-02-18T02:28:39.618Z,64.69
2019-02-18T02:33:42.057Z,64.13
2019-02-18T02:38:44.499Z,64.01
2019-02-18T02:43:46.951Z,63.78
2019-02-18T02:48:49.394Z,63.71
2019-02-18T02:53:51.836Z,63.69
2019-02-18T02:58:54.293Z,63.63
2019-02-18T03:03:56.727Z,63.59
2019-02-18T03:08:59.179Z,63.64
2019-02-18T03:14:01.607Z,63.60
2019-02-18T03:19:04.055Z,63.69
2019-02-18T03:24:06.762Z,63.80
2019-02-18T03:29:18.055Z,63.77
2019-02-18T03:34:20.502Z,63.63
2019-02-18T03:39:22.935Z,63.57
2019-02-18T03:44:25.380Z,63.76
2019-02-18T03:49:27.821Z,63.83
2019-02-18T03:54:30.277Z,64.11
2019-02-18T03:59:32.720Z,64.27
2019-02-18T04:04:35.166Z,64.20
2019-02-18T04:09:37.606Z,64.21
2019-02-18T04:14:40.221Z,64.15
2019-02-18T04:19:42.669Z,64.40
2019-02-18T04:24:45.126Z,64.67
2019-02-18T04:29:47.564Z,64.79
2019-02-18T04:34:50.055Z,64.74
2019-02-18T04:39:52.596Z,64.78
2019-02-18T04:44:55.027Z,64.91
2019-02-18T04:49:57.489Z,64.95
2019-02-18T04:54:59.968Z,64.91
2019-02-18T05:00:02.402Z,65.01
2019-02-18T05:05:04.849Z,65.00
2019-02-18T05:10:10.394Z,65.22
2019-02-18T05:15:12.842Z,65.32
2019-02-18T05:20:15.277Z,65.10
2019-02-18T05:25:17.721Z,64.92
2019-02-18T05:30:20.193Z,65.06
2019-02-18T05:35:22.621Z,65.20
2019-02-18T05:40:25.061Z,65.41
2019-02-18T05:45:27.508Z,65.23
2019-02-18T05:50:29.947Z,65.19
2019-02-18T05:55:32.391Z,65.44
2019-02-18T06:00:34.830Z,65.39
2019-02-18T06:05:37.260Z,65.65
2019-02-18T06:10:39.710Z,65.66
2019-02-18T06:15:42.160Z,65.81
2019-02-18T06:20:44.617Z,65.89
2019-02-18T06:25:47.055Z,66.01
2019-02-18T06:30:49.501Z,66.00
2019-02-18T06:35:51.953Z,66.07
2019-02-18T06:40:54.430Z,66.21
2019-02-18T06:46:09.196Z,66.05
2019-02-18T06:51:11.626Z,65.84
2019-02-18T06:56:14.062Z,65.78
2019-02-18T07:01:19.380Z,65.33
2019-02-18T07:06:21.956Z,64.93
2019-02-18T07:11:24.408Z,64.65
2019-02-18T07:16:26.865Z,64.18
2019-02-18T07:21:29.335Z,63.85
2019-02-18T07:26:31.786Z,63.38
2019-02-18T07:31:34.241Z,63.13
2019-02-18T07:36:36.710Z,62.53
2019-02-18T07:41:39.279Z,61.85
2019-02-18T07:46:41.752Z,61.40
2019-02-18T07:51:44.199Z,60.71
2019-02-18T07:56:46.637Z,60.10
2019-02-18T08:01:49.081Z,59.25
2019-02-18T08:06:51.524Z,58.42
2019-02-18T08:11:53.972Z,57.54
2019-02-18T08:16:56.415Z,56.83
2019-02-18T08:21:58.851Z,55.88
2019-02-18T08:27:01.322Z,55.35
2019-02-18T08:32:03.809Z,54.89
2019-02-18T08:37:06.237Z,53.89
2019-02-18T08:42:08.677Z,53.21
2019-02-18T08:47:11.107Z,51.84
2019-02-18T08:52:13.554Z,51.65
2019-02-18T08:57:16.003Z,50.78
2019-02-18T09:02:18.503Z,48.76
2019-02-18T09:07:21.015Z,47.55
2019-02-18T09:12:23.394Z,47.01
2019-02-18T09:17:25.833Z,47.84
2019-02-18T09:22:40.638Z,48.07
2019-02-18T09:27:43.101Z,47.96
2019-02-18T09:32:45.648Z,47.50
2019-02-18T09:37:48.093Z,47.31
2019-02-18T09:42:50.654Z,46.88
2019-02-18T09:47:54.334Z,47.82
2019-02-18T09:52:55.551Z,47.13
2019-02-18T09:57:58.002Z,47.14
2019-02-18T10:03:00.460Z,46.82
2019-02-18T10:08:02.901Z,47.27
2019-02-18T10:13:05.375Z,46.98
2019-02-18T10:18:07.813Z,47.43
2019-02-18T10:23:10.295Z,46.63
2019-02-18T10:28:12.750Z,46.58
2019-02-18T10:33:15.199Z,47.36
2019-02-18T10:38:17.637Z,46.30
2019-02-18T10:43:20.087Z,45.27
2019-02-18T10:48:22.540Z,45.01
2019-02-18T10:53:24.990Z,45.07
2019-02-18T10:58:27.438Z,44.84
2019-02-18T11:03:29.919Z,44.45
2019-02-18T11:08:32.360Z,42.53
2019-02-18T11:13:34.839Z,42.37
2019-02-18T11:18:37.294Z,42.96
2019-02-18T11:23:39.741Z,42.80
2019-02-18T11:28:42.185Z,43.15
2019-02-18T11:33:44.635Z,41.52
2019-02-18T11:38:47.086Z,41.22
2019-02-18T11:43:49.520Z,41.58
2019-02-18T11:48:52.072Z,40.12
2019-02-18T11:53:54.522Z,41.34
2019-02-18T11:58:56.965Z,40.48
2019-02-18T12:03:59.406Z,39.79
2019-02-18T12:09:04.449Z,40.37
2019-02-18T12:14:06.909Z,40.66
2019-02-18T12:19:09.362Z,40.02
2019-02-18T12:24:11.803Z,39.79
2019-02-18T12:29:14.249Z,39.55
2019-02-18T12:34:16.710Z,38.92
2019-02-18T12:39:19.178Z,39.55
2019-02-18T12:44:21.705Z,40.34
2019-02-18T12:49:24.151Z,41.05
2019-02-18T12:54:26.603Z,39.40
2019-02-18T12:59:29.372Z,38.95
2019-02-18T13:04:32.414Z,39.81
2019-02-18T13:09:34.857Z,40.14
2019-02-18T13:14:37.326Z,39.01
2019-02-18T13:19:39.822Z,39.99
2019-02-18T13:24:42.367Z,40.85
2019-02-18T13:29:44.814Z,39.06
2019-02-18T13:34:47.247Z,40.36
2019-02-18T13:39:49.693Z,39.93
2019-02-18T13:44:52.216Z,39.30
2019-02-18T13:49:54.670Z,39.99
2019-02-18T13:54:57.124Z,40.96
2019-02-18T13:59:59.594Z,41.10
2019-02-18T14:05:02.046Z,41.62
2019-02-18T14:10:04.492Z,40.48
2019-02-18T14:15:06.959Z,40.32
2019-02-18T14:20:13.990Z,39.51
2019-02-18T14:25:14.605Z,39.53
2019-02-18T14:30:17.052Z,39.51
2019-02-18T14:35:19.487Z,41.16
2019-02-18T14:40:21.926Z,41.30
2019-02-18T14:45:24.387Z,40.02
2019-02-18T14:50:26.842Z,41.25
2019-02-18T14:55:29.264Z,42.16
2019-02-18T15:00:31.706Z,42.49
2019-02-18T15:05:34.155Z,42.89
2019-02-18T15:10:36.597Z,43.27
2019-02-18T15:15:39.050Z,42.41
2019-02-18T15:20:41.504Z,42.08
2019-02-18T15:25:43.944Z,43.31
2019-02-18T15:30:46.379Z,44.15
2019-02-18T15:35:48.844Z,44.49
2019-02-18T15:40:51.306Z,44.37
2019-02-18T15:45:53.775Z,43.33
2019-02-18T15:50:56.229Z,42.98
2019-02-18T15:55:58.681Z,43.07
2019-02-18T16:01:01.129Z,44.40
2019-02-18T16:06:03.586Z,44.95
2019-02-18T16:11:06.962Z,45.70
2019-02-18T16:16:09.417Z,47.01
2019-02-18T16:21:11.852Z,47.62
2019-02-18T16:26:14.295Z,47.98
2019-02-18T16:31:16.761Z,48.48
2019-02-18T16:36:19.230Z,49.66
2019-02-18T16:41:21.672Z,50.22
2019-02-18T16:46:24.144Z,50.49
2019-02-18T16:51:26.598Z,51.16
2019-02-18T16:56:29.043Z,52.11
2019-02-18T17:01:31.521Z,52.64
2019-02-18T17:06:33.987Z,53.16
2019-02-18T17:11:36.439Z,53.62
2019-02-18T17:16:38.882Z,53.88
2019-02-18T17:21:41.333Z,54.09
2019-02-18T17:26:43.804Z,54.53
2019-02-18T17:31:46.252Z,54.94
2019-02-18T17:36:48.709Z,55.12
2019-02-18T17:41:51.169Z,55.52
2019-02-18T17:46:53.629Z,55.66
2019-02-18T17:51:56.082Z,55.67
2019-02-18T17:56:58.546Z,55.62
2019-02-18T18:02:00.960Z,55.63
2019-02-18T18:07:03.436Z,56.17
2019-02-18T18:12:05.892Z,56.42
2019-02-18T18:17:08.331Z,56.36
2019-02-18T18:22:10.776Z,56.50
2019-02-18T18:27:13.209Z,56.55
2019-02-18T18:32:15.665Z,56.76
2019-02-18T18:37:18.111Z,57.02
2019-02-18T18:42:20.584Z,57.26
2019-02-18T18:47:23.036Z,57.61
2019-02-18T18:52:25.484Z,57.85
2019-02-18T18:57:27.920Z,58.44
2019-02-18T19:02:30.370Z,58.48
2019-02-18T19:07:32.826Z,58.78
2019-02-18T19:12:35.308Z,58.88
2019-02-18T19:17:37.744Z,59.30
2019-02-18T19:22:40.209Z,59.66
2019-02-18T19:27:42.683Z,59.94
2019-02-18T19:32:45.128Z,60.26
2019-02-18T19:37:47.578Z,60.69
2019-02-18T19:42:50.052Z,60.76
2019-02-18T19:47:52.509Z,60.79
2019-02-18T19:52:54.966Z,61.17
2019-02-18T19:57:57.425Z,61.67
2019-02-18T20:02:59.872Z,61.76
2019-02-18T20:08:02.327Z,61.62
2019-02-18T20:13:04.803Z,62.20
2019-02-18T20:18:07.273Z,62.23
2019-02-18T20:23:09.728Z,62.60
2019-02-18T20:28:12.187Z,61.85
2019-02-18T20:33:14.644Z,62.16
2019-02-18T20:38:17.097Z,62.13
2019-02-18T20:43:19.567Z,62.66
2019-02-18T20:48:22.039Z,62.60
2019-02-18T20:53:24.507Z,63.29
2019-02-18T20:58:26.948Z,63.00
2019-02-18T21:03:29.408Z,63.39
2019-02-18T21:08:31.881Z,63.67
2019-02-18T21:13:34.354Z,63.67
2019-02-18T21:18:36.809Z,63.77
2019-02-18T21:23:39.297Z,63.86
2019-02-18T21:28:41.722Z,63.87
2019-02-18T21:33:44.167Z,64.10
2019-02-18T21:38:46.670Z,64.31
2019-02-18T21:43:49.143Z,64.47
2019-02-18T21:48:51.595Z,64.72
2019-02-18T21:53:54.034Z,64.44
2019-02-18T21:58:57.212Z,64.80
2019-02-18T22:03:58.926Z,65.01
2019-02-18T22:09:01.375Z,65.05
2019-02-18T22:14:03.860Z,65.20
2019-02-18T22:19:06.390Z,65.26
2019-02-18T22:24:09.394Z,65.81
2019-02-18T22:29:11.876Z,65.48
2019-02-18T22:34:14.324Z,65.56
2019-02-18T22:39:16.762Z,65.90
2019-02-18T22:44:19.195Z,66.06
2019-02-18T22:49:22.053Z,66.00
2019-02-18T22:54:24.512Z,66.00
2019-02-18T22:59:26.973Z,66.30
2019-02-18T23:04:29.414Z,66.21
2019-02-18T23:09:31.861Z,65.85
2019-02-18T23:14:34.305Z,66.37
2019-02-18T23:19:36.750Z,66.72
2019-02-18T23:24:56.798Z,66.82
2019-02-18T23:29:59.234Z,66.65
2019-02-18T23:35:01.683Z,66.60
2019-02-18T23:40:04.133Z,66.54
2019-02-18T23:45:06.576Z,66.81
2019-02-18T23:50:09.022Z,66.98
2019-02-18T23:55:11.474Z,66.91
